sensor_id;sensor_type;location;lat;lon;timestamp;temperature;humidity
13892;DHT22;7016;48.172;8.058;2023-10-31T00:02:08;11.70;99.90
13892;DHT22;7016;48.172;8.058;2023-10-31T00:04:34;11.80;99.90
13892;DHT22;7016;48.172;8.058;2023-10-31T00:07:00;11.70;99.90
13892;DHT22;7016;48.172;8.058;2023-10-31T00:09:25;11.70;99.90
13892;DHT22;7016;48.172;8.058;2023-10-31T00:11:51;10.90;99.90
13892;DHT22;7016;48.172;8.058;2023-10-31T00:14:17;11.80;99.90
13892;DHT22;7016;48.172;8.058;2023-10-31T00:16:42;11.70;99.90
13892;DHT22;7016;48.172;8.058;2023-10-31T00:19:08;11.60;99.90
13892;DHT22;7016;48.172;8.058;2023-10-31T00:21:34;11.60;99.90
13892;DHT22;7016;48.172;8.058;2023-10-31T00:23:59;11.60;99.90
13892;DHT22;7016;48.172;8.058;2023-10-31T00:26:25;11.60;99.90
13892;DHT22;7016;48.172;8.058;2023-10-31T00:28:51;11.60;99.90
13892;DHT22;7016;48.172;8.058;2023-10-31T00:31:17;11.60;99.90
13892;DHT22;7016;48.172;8.058;2023-10-31T00:33:43;11.40;99.90
13892;DHT22;7016;48.172;8.058;2023-10-31T00:36:08;11.40;99.90
13892;DHT22;7016;48.172;8.058;2023-10-31T00:38:34;11.50;99.90
13892;DHT22;7016;48.172;8.058;2023-10-31T00:41:00;11.60;99.90
13892;DHT22;7016;48.172;8.058;2023-10-31T00:43:25;11.60;99.90
13892;DHT22;7016;48.172;8.058;2023-10-31T00:45:51;11.60;99.90
13892;DHT22;7016;48.172;8.058;2023-10-31T00:48:17;11.50;99.90
13892;DHT22;7016;48.172;8.058;2023-10-31T00:50:43;11.40;99.90
13892;DHT22;7016;48.172;8.058;2023-10-31T00:53:09;11.40;99.90
13892;DHT22;7016;48.172;8.058;2023-10-31T00:55:35;11.40;99.90
13892;DHT22;7016;48.172;8.058;2023-10-31T00:58:00;11.40;99.90
13892;DHT22;7016;48.172;8.058;2023-10-31T01:00:26;11.50;99.90
13892;DHT22;7016;48.172;8.058;2023-10-31T01:02:51;11.50;99.90
13892;DHT22;7016;48.172;8.058;2023-10-31T01:05:17;11.50;99.90
13892;DHT22;7016;48.172;8.058;2023-10-31T01:07:43;11.40;99.90
13892;DHT22;7016;48.172;8.058;2023-10-31T01:10:09;11.40;99.90
13892;DHT22;7016;48.172;8.058;2023-10-31T01:12:35;11.50;99.90
13892;DHT22;7016;48.172;8.058;2023-10-31T01:15:00;11.50;99.90
13892;DHT22;7016;48.172;8.058;2023-10-31T01:17:26;11.30;99.90
13892;DHT22;7016;48.172;8.058;2023-10-31T01:19:52;11.40;99.90
13892;DHT22;7016;48.172;8.058;2023-10-31T01:22:17;11.40;99.90
13892;DHT22;7016;48.172;8.058;2023-10-31T01:24:43;11.40;99.90
13892;DHT22;7016;48.172;8.058;2023-10-31T01:27:09;11.40;99.90
13892;DHT22;7016;48.172;8.058;2023-10-31T01:29:35;11.50;99.90
13892;DHT22;7016;48.172;8.058;2023-10-31T01:32:01;11.50;99.90
13892;DHT22;7016;48.172;8.058;2023-10-31T01:34:27;11.40;99.90
13892;DHT22;7016;48.172;8.058;2023-10-31T01:36:52;11.30;99.90
13892;DHT22;7016;48.172;8.058;2023-10-31T01:39:18;11.30;99.90
13892;DHT22;7016;48.172;8.058;2023-10-31T01:41:44;11.30;99.90
13892;DHT22;7016;48.172;8.058;2023-10-31T01:44:10;11.40;99.90
13892;DHT22;7016;48.172;8.058;2023-10-31T01:46:36;11.40;99.90
13892;DHT22;7016;48.172;8.058;2023-10-31T01:49:02;11.40;99.90
13892;DHT22;7016;48.172;8.058;2023-10-31T01:51:28;11.30;99.90
13892;DHT22;7016;48.172;8.058;2023-10-31T01:53:55;11.30;99.90
13892;DHT22;7016;48.172;8.058;2023-10-31T01:56:21;11.10;99.90
13892;DHT22;7016;48.172;8.058;2023-10-31T01:58:48;11.10;99.90
13892;DHT22;7016;48.172;8.058;2023-10-31T02:01:14;11.10;99.90
13892;DHT22;7016;48.172;8.058;2023-10-31T02:03:40;11.20;99.90
13892;DHT22;7016;48.172;8.058;2023-10-31T02:06:06;11.20;99.90
13892;DHT22;7016;48.172;8.058;2023-10-31T02:08:32;11.10;99.90
13892;DHT22;7016;48.172;8.058;2023-10-31T02:10:58;11.20;99.90
13892;DHT22;7016;48.172;8.058;2023-10-31T02:13:24;11.10;99.90
13892;DHT22;7016;48.172;8.058;2023-10-31T02:15:49;11.20;99.90
13892;DHT22;7016;48.172;8.058;2023-10-31T02:18:15;11.20;99.90
13892;DHT22;7016;48.172;8.058;2023-10-31T02:20:41;11.30;99.90
13892;DHT22;7016;48.172;8.058;2023-10-31T02:23:07;11.30;99.90
13892;DHT22;7016;48.172;8.058;2023-10-31T02:25:33;11.30;99.90
13892;DHT22;7016;48.172;8.058;2023-10-31T02:27:58;11.10;99.90
13892;DHT22;7016;48.172;8.058;2023-10-31T02:30:24;11.00;99.90
13892;DHT22;7016;48.172;8.058;2023-10-31T02:32:50;11.00;99.90
13892;DHT22;7016;48.172;8.058;2023-10-31T02:35:17;11.00;99.90
13892;DHT22;7016;48.172;8.058;2023-10-31T02:37:47;11.10;99.90
13892;DHT22;7016;48.172;8.058;2023-10-31T02:40:13;11.10;99.90
13892;DHT22;7016;48.172;8.058;2023-10-31T02:42:39;11.10;99.90
13892;DHT22;7016;48.172;8.058;2023-10-31T02:45:05;11.10;99.90
13892;DHT22;7016;48.172;8.058;2023-10-31T02:47:31;11.60;99.90
13892;DHT22;7016;48.172;8.058;2023-10-31T02:49:57;11.20;99.90
13892;DHT22;7016;48.172;8.058;2023-10-31T02:52:22;11.10;99.90
13892;DHT22;7016;48.172;8.058;2023-10-31T02:54:48;11.00;99.90
13892;DHT22;7016;48.172;8.058;2023-10-31T02:57:16;11.10;99.90
13892;DHT22;7016;48.172;8.058;2023-10-31T02:59:42;11.00;99.90
13892;DHT22;7016;48.172;8.058;2023-10-31T03:02:07;11.10;99.90
13892;DHT22;7016;48.172;8.058;2023-10-31T03:04:33;11.00;99.90
13892;DHT22;7016;48.172;8.058;2023-10-31T03:06:59;11.10;99.90
13892;DHT22;7016;48.172;8.058;2023-10-31T03:09:25;11.10;99.90
13892;DHT22;7016;48.172;8.058;2023-10-31T03:11:50;11.00;99.90
13892;DHT22;7016;48.172;8.058;2023-10-31T03:14:16;11.00;99.90
13892;DHT22;7016;48.172;8.058;2023-10-31T03:16:42;11.00;99.90
13892;DHT22;7016;48.172;8.058;2023-10-31T03:19:08;11.00;99.90
13892;DHT22;7016;48.172;8.058;2023-10-31T03:21:33;10.80;99.90
13892;DHT22;7016;48.172;8.058;2023-10-31T03:23:59;10.70;99.90
13892;DHT22;7016;48.172;8.058;2023-10-31T03:26:25;10.80;99.90
13892;DHT22;7016;48.172;8.058;2023-10-31T03:28:51;10.70;99.90
13892;DHT22;7016;48.172;8.058;2023-10-31T03:31:19;10.90;99.90
13892;DHT22;7016;48.172;8.058;2023-10-31T03:33:45;10.80;99.90
13892;DHT22;7016;48.172;8.058;2023-10-31T03:36:12;10.80;99.90
13892;DHT22;7016;48.172;8.058;2023-10-31T03:38:37;10.80;99.90
13892;DHT22;7016;48.172;8.058;2023-10-31T03:41:03;10.90;99.90
13892;DHT22;7016;48.172;8.058;2023-10-31T03:43:29;10.90;99.90
13892;DHT22;7016;48.172;8.058;2023-10-31T03:45:55;10.80;99.90
13892;DHT22;7016;48.172;8.058;2023-10-31T03:48:21;10.80;99.90
13892;DHT22;7016;48.172;8.058;2023-10-31T03:50:47;10.90;99.90
13892;DHT22;7016;48.172;8.058;2023-10-31T03:53:12;10.80;99.90
13892;DHT22;7016;48.172;8.058;2023-10-31T03:55:38;10.90;99.90
13892;DHT22;7016;48.172;8.058;2023-10-31T03:58:04;10.90;99.90
13892;DHT22;7016;48.172;8.058;2023-10-31T04:00:31;11.00;99.90
13892;DHT22;7016;48.172;8.058;2023-10-31T04:02:57;11.10;99.90
13892;DHT22;7016;48.172;8.058;2023-10-31T04:05:22;11.10;99.90
13892;DHT22;7016;48.172;8.058;2023-10-31T04:07:48;10.90;99.90
13892;DHT22;7016;48.172;8.058;2023-10-31T04:10:15;10.80;99.90
13892;DHT22;7016;48.172;8.058;2023-10-31T04:12:41;10.90;99.90
13892;DHT22;7016;48.172;8.058;2023-10-31T04:15:07;10.90;99.90
13892;DHT22;7016;48.172;8.058;2023-10-31T04:17:33;10.90;99.90
13892;DHT22;7016;48.172;8.058;2023-10-31T04:19:59;10.80;99.90
13892;DHT22;7016;48.172;8.058;2023-10-31T04:22:25;10.90;99.90
13892;DHT22;7016;48.172;8.058;2023-10-31T04:24:50;10.80;99.90
13892;DHT22;7016;48.172;8.058;2023-10-31T04:27:16;10.90;99.90
13892;DHT22;7016;48.172;8.058;2023-10-31T04:29:42;10.80;99.90
13892;DHT22;7016;48.172;8.058;2023-10-31T04:32:08;10.80;99.90
13892;DHT22;7016;48.172;8.058;2023-10-31T04:34:33;10.90;99.90
13892;DHT22;7016;48.172;8.058;2023-10-31T04:36:59;11.00;99.90
13892;DHT22;7016;48.172;8.058;2023-10-31T04:39:25;10.90;99.90
13892;DHT22;7016;48.172;8.058;2023-10-31T04:41:50;10.90;99.90
13892;DHT22;7016;48.172;8.058;2023-10-31T04:44:16;10.90;99.90
13892;DHT22;7016;48.172;8.058;2023-10-31T04:46:42;10.90;99.90
13892;DHT22;7016;48.172;8.058;2023-10-31T04:49:08;10.90;99.90
13892;DHT22;7016;48.172;8.058;2023-10-31T04:51:35;11.00;99.90
13892;DHT22;7016;48.172;8.058;2023-10-31T04:54:01;10.90;99.90
13892;DHT22;7016;48.172;8.058;2023-10-31T04:56:26;10.90;99.90
13892;DHT22;7016;48.172;8.058;2023-10-31T04:58:52;10.80;99.90
13892;DHT22;7016;48.172;8.058;2023-10-31T05:01:18;10.80;99.90
13892;DHT22;7016;48.172;8.058;2023-10-31T05:03:44;10.80;99.90
13892;DHT22;7016;48.172;8.058;2023-10-31T05:06:10;10.80;99.90
13892;DHT22;7016;48.172;8.058;2023-10-31T05:08:36;10.90;99.90
13892;DHT22;7016;48.172;8.058;2023-10-31T05:11:02;10.90;99.90
13892;DHT22;7016;48.172;8.058;2023-10-31T05:13:27;11.00;99.90
13892;DHT22;7016;48.172;8.058;2023-10-31T05:15:53;11.00;99.90
13892;DHT22;7016;48.172;8.058;2023-10-31T05:18:19;11.00;99.90
13892;DHT22;7016;48.172;8.058;2023-10-31T05:20:45;11.00;99.90
13892;DHT22;7016;48.172;8.058;2023-10-31T05:23:11;11.00;99.90
13892;DHT22;7016;48.172;8.058;2023-10-31T05:25:37;11.00;99.90
13892;DHT22;7016;48.172;8.058;2023-10-31T05:28:04;10.90;99.90
13892;DHT22;7016;48.172;8.058;2023-10-31T05:30:29;10.90;99.90
13892;DHT22;7016;48.172;8.058;2023-10-31T05:32:55;10.80;99.90
13892;DHT22;7016;48.172;8.058;2023-10-31T05:35:21;10.80;99.90
13892;DHT22;7016;48.172;8.058;2023-10-31T05:37:47;10.80;99.90
13892;DHT22;7016;48.172;8.058;2023-10-31T05:40:14;10.90;99.90
13892;DHT22;7016;48.172;8.058;2023-10-31T05:42:40;11.00;99.90
13892;DHT22;7016;48.172;8.058;2023-10-31T05:45:06;11.00;99.90
13892;DHT22;7016;48.172;8.058;2023-10-31T05:47:32;11.00;99.90
13892;DHT22;7016;48.172;8.058;2023-10-31T05:49:58;11.00;99.90
13892;DHT22;7016;48.172;8.058;2023-10-31T05:52:28;11.00;99.90
13892;DHT22;7016;48.172;8.058;2023-10-31T05:54:55;10.90;99.90
13892;DHT22;7016;48.172;8.058;2023-10-31T05:57:20;11.00;99.90
13892;DHT22;7016;48.172;8.058;2023-10-31T05:59:46;11.00;99.90
13892;DHT22;7016;48.172;8.058;2023-10-31T06:02:13;11.10;99.90
13892;DHT22;7016;48.172;8.058;2023-10-31T06:04:38;11.00;99.90
13892;DHT22;7016;48.172;8.058;2023-10-31T06:07:04;11.00;99.90
13892;DHT22;7016;48.172;8.058;2023-10-31T06:09:30;11.10;99.90
13892;DHT22;7016;48.172;8.058;2023-10-31T06:11:55;11.00;99.90
13892;DHT22;7016;48.172;8.058;2023-10-31T06:14:21;11.10;99.90
13892;DHT22;7016;48.172;8.058;2023-10-31T06:16:47;11.00;99.90
13892;DHT22;7016;48.172;8.058;2023-10-31T06:19:12;11.00;99.90
13892;DHT22;7016;48.172;8.058;2023-10-31T06:21:38;11.00;99.90
13892;DHT22;7016;48.172;8.058;2023-10-31T06:24:04;11.00;99.90
13892;DHT22;7016;48.172;8.058;2023-10-31T06:26:30;11.00;99.90
13892;DHT22;7016;48.172;8.058;2023-10-31T06:28:56;10.90;99.90
13892;DHT22;7016;48.172;8.058;2023-10-31T06:31:22;11.00;99.90
13892;DHT22;7016;48.172;8.058;2023-10-31T06:33:47;11.00;99.90
13892;DHT22;7016;48.172;8.058;2023-10-31T06:36:13;11.00;99.90
13892;DHT22;7016;48.172;8.058;2023-10-31T06:38:38;11.00;99.90
13892;DHT22;7016;48.172;8.058;2023-10-31T06:41:04;11.00;99.90
13892;DHT22;7016;48.172;8.058;2023-10-31T06:43:30;11.10;99.90
13892;DHT22;7016;48.172;8.058;2023-10-31T06:45:55;11.00;99.90
13892;DHT22;7016;48.172;8.058;2023-10-31T06:48:22;11.00;99.90
13892;DHT22;7016;48.172;8.058;2023-10-31T06:50:48;11.10;99.90
13892;DHT22;7016;48.172;8.058;2023-10-31T06:53:14;11.10;99.90
13892;DHT22;7016;48.172;8.058;2023-10-31T06:55:39;11.20;99.90
13892;DHT22;7016;48.172;8.058;2023-10-31T06:58:05;11.20;99.90
13892;DHT22;7016;48.172;8.058;2023-10-31T07:00:31;11.10;99.90
13892;DHT22;7016;48.172;8.058;2023-10-31T07:02:56;11.20;99.90
13892;DHT22;7016;48.172;8.058;2023-10-31T07:05:24;11.20;99.90
13892;DHT22;7016;48.172;8.058;2023-10-31T07:07:50;11.20;99.90
13892;DHT22;7016;48.172;8.058;2023-10-31T07:10:15;11.20;99.90
13892;DHT22;7016;48.172;8.058;2023-10-31T07:12:41;11.20;99.90
13892;DHT22;7016;48.172;8.058;2023-10-31T07:15:07;11.20;99.90
13892;DHT22;7016;48.172;8.058;2023-10-31T07:17:33;11.20;99.90
13892;DHT22;7016;48.172;8.058;2023-10-31T07:19:59;11.20;99.90
13892;DHT22;7016;48.172;8.058;2023-10-31T07:22:24;11.10;99.90
13892;DHT22;7016;48.172;8.058;2023-10-31T07:24:51;11.10;99.90
13892;DHT22;7016;48.172;8.058;2023-10-31T07:27:17;11.10;99.90
13892;DHT22;7016;48.172;8.058;2023-10-31T07:29:43;11.10;99.90
13892;DHT22;7016;48.172;8.058;2023-10-31T07:32:09;11.10;99.90
13892;DHT22;7016;48.172;8.058;2023-10-31T07:34:35;11.00;99.90
13892;DHT22;7016;48.172;8.058;2023-10-31T07:37:00;11.00;99.90
13892;DHT22;7016;48.172;8.058;2023-10-31T07:39:27;11.00;99.90
13892;DHT22;7016;48.172;8.058;2023-10-31T07:41:52;11.00;99.90
13892;DHT22;7016;48.172;8.058;2023-10-31T07:44:18;10.90;99.90
13892;DHT22;7016;48.172;8.058;2023-10-31T07:46:44;11.00;99.90
13892;DHT22;7016;48.172;8.058;2023-10-31T07:49:09;11.10;99.90
13892;DHT22;7016;48.172;8.058;2023-10-31T07:51:35;11.10;99.90
13892;DHT22;7016;48.172;8.058;2023-10-31T07:54:01;11.10;99.90
13892;DHT22;7016;48.172;8.058;2023-10-31T07:56:26;11.10;99.90
13892;DHT22;7016;48.172;8.058;2023-10-31T07:58:52;11.10;99.90
13892;DHT22;7016;48.172;8.058;2023-10-31T08:01:18;11.20;99.90
13892;DHT22;7016;48.172;8.058;2023-10-31T08:03:46;11.20;99.90
13892;DHT22;7016;48.172;8.058;2023-10-31T08:06:12;11.30;99.90
13892;DHT22;7016;48.172;8.058;2023-10-31T08:08:37;11.30;99.90
13892;DHT22;7016;48.172;8.058;2023-10-31T08:11:03;11.20;99.90
13892;DHT22;7016;48.172;8.058;2023-10-31T08:13:30;11.10;99.90
13892;DHT22;7016;48.172;8.058;2023-10-31T08:15:55;11.10;99.90
13892;DHT22;7016;48.172;8.058;2023-10-31T08:18:23;11.10;99.90
13892;DHT22;7016;48.172;8.058;2023-10-31T08:20:49;11.10;99.90
13892;DHT22;7016;48.172;8.058;2023-10-31T08:23:16;11.20;99.90
13892;DHT22;7016;48.172;8.058;2023-10-31T08:25:43;11.20;99.90
13892;DHT22;7016;48.172;8.058;2023-10-31T08:28:09;11.10;99.90
13892;DHT22;7016;48.172;8.058;2023-10-31T08:30:35;11.10;99.90
13892;DHT22;7016;48.172;8.058;2023-10-31T08:33:01;11.20;99.90
13892;DHT22;7016;48.172;8.058;2023-10-31T08:35:27;11.10;99.90
13892;DHT22;7016;48.172;8.058;2023-10-31T08:37:53;11.30;99.90
13892;DHT22;7016;48.172;8.058;2023-10-31T08:40:19;11.20;99.90
13892;DHT22;7016;48.172;8.058;2023-10-31T08:42:45;11.10;99.90
13892;DHT22;7016;48.172;8.058;2023-10-31T08:45:11;11.10;99.90
13892;DHT22;7016;48.172;8.058;2023-10-31T08:47:36;11.10;99.90
13892;DHT22;7016;48.172;8.058;2023-10-31T08:50:02;11.00;99.90
13892;DHT22;7016;48.172;8.058;2023-10-31T08:52:28;11.10;99.90
13892;DHT22;7016;48.172;8.058;2023-10-31T08:54:54;11.10;99.90
13892;DHT22;7016;48.172;8.058;2023-10-31T08:57:19;11.10;99.90
13892;DHT22;7016;48.172;8.058;2023-10-31T08:59:45;11.10;99.90
13892;DHT22;7016;48.172;8.058;2023-10-31T09:02:11;11.00;99.90
13892;DHT22;7016;48.172;8.058;2023-10-31T09:04:36;11.00;99.90
13892;DHT22;7016;48.172;8.058;2023-10-31T09:07:02;11.10;99.90
13892;DHT22;7016;48.172;8.058;2023-10-31T09:09:27;11.20;99.90
13892;DHT22;7016;48.172;8.058;2023-10-31T09:11:53;11.20;99.90
13892;DHT22;7016;48.172;8.058;2023-10-31T09:14:19;11.20;99.90
13892;DHT22;7016;48.172;8.058;2023-10-31T09:16:45;11.30;99.90
13892;DHT22;7016;48.172;8.058;2023-10-31T09:19:11;11.20;99.90
13892;DHT22;7016;48.172;8.058;2023-10-31T09:21:36;11.20;99.90
13892;DHT22;7016;48.172;8.058;2023-10-31T09:24:03;11.30;99.90
13892;DHT22;7016;48.172;8.058;2023-10-31T09:26:28;11.30;99.90
13892;DHT22;7016;48.172;8.058;2023-10-31T09:28:55;11.30;99.90
13892;DHT22;7016;48.172;8.058;2023-10-31T09:31:20;11.30;99.90
13892;DHT22;7016;48.172;8.058;2023-10-31T09:33:46;11.30;99.90
13892;DHT22;7016;48.172;8.058;2023-10-31T09:36:12;11.30;99.90
13892;DHT22;7016;48.172;8.058;2023-10-31T09:38:39;11.30;99.90
13892;DHT22;7016;48.172;8.058;2023-10-31T09:41:05;11.30;99.90
13892;DHT22;7016;48.172;8.058;2023-10-31T09:43:31;11.40;99.90
13892;DHT22;7016;48.172;8.058;2023-10-31T09:45:58;11.40;99.90
13892;DHT22;7016;48.172;8.058;2023-10-31T09:48:26;11.50;99.90
13892;DHT22;7016;48.172;8.058;2023-10-31T09:50:53;11.50;99.90
13892;DHT22;7016;48.172;8.058;2023-10-31T09:53:20;11.60;99.90
13892;DHT22;7016;48.172;8.058;2023-10-31T09:55:46;11.60;99.90
13892;DHT22;7016;48.172;8.058;2023-10-31T09:58:13;11.70;99.90
13892;DHT22;7016;48.172;8.058;2023-10-31T10:00:39;11.60;99.90
13892;DHT22;7016;48.172;8.058;2023-10-31T10:03:09;11.60;99.90
13892;DHT22;7016;48.172;8.058;2023-10-31T10:05:35;11.60;99.90
13892;DHT22;7016;48.172;8.058;2023-10-31T10:08:01;11.50;99.90
13892;DHT22;7016;48.172;8.058;2023-10-31T10:10:28;11.60;99.90
13892;DHT22;7016;48.172;8.058;2023-10-31T10:12:55;11.80;99.90
13892;DHT22;7016;48.172;8.058;2023-10-31T10:15:21;11.80;99.90
13892;DHT22;7016;48.172;8.058;2023-10-31T10:17:51;11.80;99.90
13892;DHT22;7016;48.172;8.058;2023-10-31T10:20:18;11.90;99.90
13892;DHT22;7016;48.172;8.058;2023-10-31T10:22:44;11.80;99.90
13892;DHT22;7016;48.172;8.058;2023-10-31T10:25:17;11.70;99.90
13892;DHT22;7016;48.172;8.058;2023-10-31T10:27:47;11.80;99.90
13892;DHT22;7016;48.172;8.058;2023-10-31T10:30:14;11.90;99.90
13892;DHT22;7016;48.172;8.058;2023-10-31T10:32:40;11.90;99.90
13892;DHT22;7016;48.172;8.058;2023-10-31T10:35:09;11.90;99.90
13892;DHT22;7016;48.172;8.058;2023-10-31T10:37:38;11.80;99.90
13892;DHT22;7016;48.172;8.058;2023-10-31T10:40:06;11.70;99.90
13892;DHT22;7016;48.172;8.058;2023-10-31T10:42:34;11.70;99.90
13892;DHT22;7016;48.172;8.058;2023-10-31T10:45:04;11.70;99.90
13892;DHT22;7016;48.172;8.058;2023-10-31T10:47:31;11.70;99.90
13892;DHT22;7016;48.172;8.058;2023-10-31T10:50:01;11.90;99.90
13892;DHT22;7016;48.172;8.058;2023-10-31T10:52:35;11.80;99.90
13892;DHT22;7016;48.172;8.058;2023-10-31T10:55:08;11.80;99.90
13892;DHT22;7016;48.172;8.058;2023-10-31T10:57:56;11.80;99.90
13892;DHT22;7016;48.172;8.058;2023-10-31T11:00:25;11.90;99.90
13892;DHT22;7016;48.172;8.058;2023-10-31T11:02:56;11.70;99.90
13892;DHT22;7016;48.172;8.058;2023-10-31T11:05:24;11.80;99.90
13892;DHT22;7016;48.172;8.058;2023-10-31T11:07:51;11.80;99.90
13892;DHT22;7016;48.172;8.058;2023-10-31T11:10:17;11.80;99.90
13892;DHT22;7016;48.172;8.058;2023-10-31T11:12:43;11.90;99.90
13892;DHT22;7016;48.172;8.058;2023-10-31T11:15:12;11.90;99.90
13892;DHT22;7016;48.172;8.058;2023-10-31T11:17:42;12.00;99.90
13892;DHT22;7016;48.172;8.058;2023-10-31T11:20:10;12.00;99.90
13892;DHT22;7016;48.172;8.058;2023-10-31T11:22:40;12.00;99.90
13892;DHT22;7016;48.172;8.058;2023-10-31T11:25:12;12.00;99.90
13892;DHT22;7016;48.172;8.058;2023-10-31T11:27:38;12.10;99.90
13892;DHT22;7016;48.172;8.058;2023-10-31T11:32:52;11.90;99.90
13892;DHT22;7016;48.172;8.058;2023-10-31T11:35:18;11.90;99.90
13892;DHT22;7016;48.172;8.058;2023-10-31T11:37:48;12.00;99.90
13892;DHT22;7016;48.172;8.058;2023-10-31T11:40:22;12.00;99.90
13892;DHT22;7016;48.172;8.058;2023-10-31T11:42:50;12.00;99.90
13892;DHT22;7016;48.172;8.058;2023-10-31T11:45:30;12.00;99.90
13892;DHT22;7016;48.172;8.058;2023-10-31T11:47:57;12.00;99.90
13892;DHT22;7016;48.172;8.058;2023-10-31T11:50:23;12.00;99.90
13892;DHT22;7016;48.172;8.058;2023-10-31T11:53:08;12.10;99.90
13892;DHT22;7016;48.172;8.058;2023-10-31T11:55:40;12.10;99.90
13892;DHT22;7016;48.172;8.058;2023-10-31T11:58:24;12.10;99.90
13892;DHT22;7016;48.172;8.058;2023-10-31T12:00:52;12.10;99.90
13892;DHT22;7016;48.172;8.058;2023-10-31T12:03:26;12.20;99.90
13892;DHT22;7016;48.172;8.058;2023-10-31T12:05:58;12.20;99.90
13892;DHT22;7016;48.172;8.058;2023-10-31T12:08:33;12.20;99.90
13892;DHT22;7016;48.172;8.058;2023-10-31T12:11:13;12.20;99.90
13892;DHT22;7016;48.172;8.058;2023-10-31T12:13:52;12.20;99.90
13892;DHT22;7016;48.172;8.058;2023-10-31T12:16:18;12.20;99.90
13892;DHT22;7016;48.172;8.058;2023-10-31T12:18:44;12.10;99.90
13892;DHT22;7016;48.172;8.058;2023-10-31T12:21:09;12.20;99.90
13892;DHT22;7016;48.172;8.058;2023-10-31T12:23:39;12.40;99.90
13892;DHT22;7016;48.172;8.058;2023-10-31T12:26:05;12.40;99.90
13892;DHT22;7016;48.172;8.058;2023-10-31T12:28:31;12.40;99.90
13892;DHT22;7016;48.172;8.058;2023-10-31T12:30:56;12.30;99.90
13892;DHT22;7016;48.172;8.058;2023-10-31T12:33:26;12.30;99.90
13892;DHT22;7016;48.172;8.058;2023-10-31T12:35:57;12.30;99.90
13892;DHT22;7016;48.172;8.058;2023-10-31T12:38:23;12.30;99.90
13892;DHT22;7016;48.172;8.058;2023-10-31T12:40:49;12.20;99.90
13892;DHT22;7016;48.172;8.058;2023-10-31T12:43:17;12.20;99.90
13892;DHT22;7016;48.172;8.058;2023-10-31T12:45:43;12.20;99.90
13892;DHT22;7016;48.172;8.058;2023-10-31T12:48:09;12.20;99.90
13892;DHT22;7016;48.172;8.058;2023-10-31T12:50:37;12.10;99.90
13892;DHT22;7016;48.172;8.058;2023-10-31T12:53:03;12.20;99.90
13892;DHT22;7016;48.172;8.058;2023-10-31T12:55:31;12.20;99.90
13892;DHT22;7016;48.172;8.058;2023-10-31T12:57:57;12.20;99.90
13892;DHT22;7016;48.172;8.058;2023-10-31T13:00:33;12.20;99.90
13892;DHT22;7016;48.172;8.058;2023-10-31T13:03:04;12.20;99.90
13892;DHT22;7016;48.172;8.058;2023-10-31T13:05:31;12.20;99.90
13892;DHT22;7016;48.172;8.058;2023-10-31T13:07:57;12.20;99.90
13892;DHT22;7016;48.172;8.058;2023-10-31T13:10:29;12.20;99.90
13892;DHT22;7016;48.172;8.058;2023-10-31T13:12:55;12.20;99.90
13892;DHT22;7016;48.172;8.058;2023-10-31T13:15:22;12.20;99.90
13892;DHT22;7016;48.172;8.058;2023-10-31T13:17:49;12.20;99.90
13892;DHT22;7016;48.172;8.058;2023-10-31T13:20:16;12.20;99.90
13892;DHT22;7016;48.172;8.058;2023-10-31T13:22:43;12.20;99.90
13892;DHT22;7016;48.172;8.058;2023-10-31T13:25:11;12.20;99.90
13892;DHT22;7016;48.172;8.058;2023-10-31T13:27:37;12.10;99.90
13892;DHT22;7016;48.172;8.058;2023-10-31T13:30:04;12.10;99.90
13892;DHT22;7016;48.172;8.058;2023-10-31T13:32:31;12.20;99.90
13892;DHT22;7016;48.172;8.058;2023-10-31T13:34:57;12.10;99.90
13892;DHT22;7016;48.172;8.058;2023-10-31T13:37:23;12.20;99.90
13892;DHT22;7016;48.172;8.058;2023-10-31T13:39:48;12.20;99.90
13892;DHT22;7016;48.172;8.058;2023-10-31T13:42:14;12.10;99.90
13892;DHT22;7016;48.172;8.058;2023-10-31T13:44:40;12.10;99.90
13892;DHT22;7016;48.172;8.058;2023-10-31T13:47:06;12.10;99.90
13892;DHT22;7016;48.172;8.058;2023-10-31T13:49:32;12.00;99.90
13892;DHT22;7016;48.172;8.058;2023-10-31T13:51:58;12.10;99.90
13892;DHT22;7016;48.172;8.058;2023-10-31T13:54:23;12.10;99.90
13892;DHT22;7016;48.172;8.058;2023-10-31T13:56:49;12.20;99.90
13892;DHT22;7016;48.172;8.058;2023-10-31T13:59:15;12.10;99.90
13892;DHT22;7016;48.172;8.058;2023-10-31T14:01:41;12.20;99.90
13892;DHT22;7016;48.172;8.058;2023-10-31T14:04:07;12.20;99.90
13892;DHT22;7016;48.172;8.058;2023-10-31T14:06:33;12.20;99.90
13892;DHT22;7016;48.172;8.058;2023-10-31T14:09:00;12.20;99.90
13892;DHT22;7016;48.172;8.058;2023-10-31T14:11:30;12.10;99.90
13892;DHT22;7016;48.172;8.058;2023-10-31T14:13:56;12.10;99.90
13892;DHT22;7016;48.172;8.058;2023-10-31T14:16:28;12.10;99.90
13892;DHT22;7016;48.172;8.058;2023-10-31T14:18:55;12.10;99.90
13892;DHT22;7016;48.172;8.058;2023-10-31T14:21:21;12.00;99.90
13892;DHT22;7016;48.172;8.058;2023-10-31T14:23:46;11.90;99.90
13892;DHT22;7016;48.172;8.058;2023-10-31T14:26:22;11.90;99.90
13892;DHT22;7016;48.172;8.058;2023-10-31T14:28:48;11.90;99.90
13892;DHT22;7016;48.172;8.058;2023-10-31T14:31:15;12.00;99.90
13892;DHT22;7016;48.172;8.058;2023-10-31T14:33:41;12.10;99.90
13892;DHT22;7016;48.172;8.058;2023-10-31T14:36:08;12.10;99.90
13892;DHT22;7016;48.172;8.058;2023-10-31T14:38:36;12.10;99.90
13892;DHT22;7016;48.172;8.058;2023-10-31T14:41:01;12.20;99.90
13892;DHT22;7016;48.172;8.058;2023-10-31T14:43:27;12.20;99.90
13892;DHT22;7016;48.172;8.058;2023-10-31T14:45:53;12.20;99.90
13892;DHT22;7016;48.172;8.058;2023-10-31T14:48:20;12.20;99.90
13892;DHT22;7016;48.172;8.058;2023-10-31T14:50:46;12.00;99.90
13892;DHT22;7016;48.172;8.058;2023-10-31T14:53:12;12.00;99.90
13892;DHT22;7016;48.172;8.058;2023-10-31T14:55:38;12.10;99.90
13892;DHT22;7016;48.172;8.058;2023-10-31T14:58:04;12.10;99.90
13892;DHT22;7016;48.172;8.058;2023-10-31T15:00:30;12.10;99.90
13892;DHT22;7016;48.172;8.058;2023-10-31T15:02:56;12.10;99.90
13892;DHT22;7016;48.172;8.058;2023-10-31T15:05:22;12.10;99.90
13892;DHT22;7016;48.172;8.058;2023-10-31T15:07:49;12.20;99.90
13892;DHT22;7016;48.172;8.058;2023-10-31T15:10:16;12.20;99.90
13892;DHT22;7016;48.172;8.058;2023-10-31T15:12:42;12.20;99.90
13892;DHT22;7016;48.172;8.058;2023-10-31T15:15:08;12.10;99.90
13892;DHT22;7016;48.172;8.058;2023-10-31T15:17:34;12.20;99.90
13892;DHT22;7016;48.172;8.058;2023-10-31T15:20:00;12.10;99.90
13892;DHT22;7016;48.172;8.058;2023-10-31T15:22:25;12.00;99.90
13892;DHT22;7016;48.172;8.058;2023-10-31T15:24:51;12.00;99.90
13892;DHT22;7016;48.172;8.058;2023-10-31T15:27:17;12.10;99.90
13892;DHT22;7016;48.172;8.058;2023-10-31T15:29:45;12.10;99.90
13892;DHT22;7016;48.172;8.058;2023-10-31T15:32:11;12.10;99.90
13892;DHT22;7016;48.172;8.058;2023-10-31T15:34:39;12.20;99.90
13892;DHT22;7016;48.172;8.058;2023-10-31T15:37:07;12.10;99.90
13892;DHT22;7016;48.172;8.058;2023-10-31T15:39:32;12.00;99.90
13892;DHT22;7016;48.172;8.058;2023-10-31T15:41:58;12.10;99.90
13892;DHT22;7016;48.172;8.058;2023-10-31T15:44:24;12.00;99.90